createdAt,value
2017-07-02T00:00:42.504Z,0
2017-07-02T00:01:52.412Z,0
2017-07-02T00:03:02.021Z,0
2017-07-02T00:04:11.926Z,0
2017-07-02T00:05:21.854Z,0
2017-07-02T00:06:31.447Z,0
2017-07-02T00:07:41.659Z,0
2017-07-02T00:08:51.865Z,0
2017-07-02T00:10:01.471Z,0
2017-07-02T00:11:11.681Z,0
2017-07-02T00:12:21.896Z,0
2017-07-02T00:13:32.101Z,0
2017-07-02T00:14:42.312Z,0
2017-07-02T00:15:51.916Z,0
2017-07-02T00:17:01.526Z,0
2017-07-02T00:18:11.443Z,0
2017-07-02T00:19:21.657Z,0
2017-07-02T00:20:31.573Z,0
2017-07-02T00:21:41.486Z,0
2017-07-02T00:22:51.084Z,0
2017-07-02T00:24:01.303Z,0
2017-07-02T00:25:11.517Z,0
2017-07-02T00:26:21.119Z,0
2017-07-02T00:27:31.051Z,0
2017-07-02T00:28:40.355Z,0
2017-07-02T00:29:50.571Z,0
2017-07-02T00:31:00.169Z,0
2017-07-02T00:32:10.071Z,0
2017-07-02T00:33:19.972Z,0
2017-07-02T00:34:29.883Z,0
2017-07-02T00:35:39.789Z,0
2017-07-02T00:36:48.776Z,0
2017-07-02T00:37:58.371Z,0
2017-07-02T00:39:07.968Z,0
2017-07-02T00:40:18.177Z,0
2017-07-02T00:41:27.475Z,0
2017-07-02T00:42:37.389Z,0
2017-07-02T00:43:47.294Z,0
2017-07-02T00:44:57.499Z,0
2017-07-02T00:46:07.410Z,0
2017-07-02T00:47:17.635Z,0
2017-07-02T00:48:27.844Z,0
2017-07-02T00:49:37.447Z,0
2017-07-02T00:50:47.667Z,0
2017-07-02T00:51:57.957Z,0
2017-07-02T00:53:08.198Z,0
2017-07-02T00:54:17.808Z,0
2017-07-02T00:55:27.714Z,0
2017-07-02T00:56:37.625Z,0
2017-07-02T00:57:47.836Z,0
2017-07-02T00:58:57.744Z,0
2017-07-02T01:00:07.046Z,0
2017-07-02T01:01:17.269Z,0
2017-07-02T01:02:26.857Z,0
2017-07-02T01:03:36.768Z,0
2017-07-02T01:04:46.368Z,0
2017-07-02T01:05:56.577Z,0
2017-07-02T01:07:06.477Z,0
2017-07-02T01:08:16.089Z,0
2017-07-02T01:09:26.341Z,0
2017-07-02T01:10:36.242Z,0
2017-07-02T01:11:46.151Z,0
2017-07-02T01:12:56.063Z,0
2017-07-02T01:14:05.662Z,0
2017-07-02T01:15:15.561Z,0
2017-07-02T01:16:25.766Z,0
2017-07-02T01:17:35.672Z,0
2017-07-02T01:18:45.893Z,0
2017-07-02T01:19:55.802Z,0
2017-07-02T01:21:05.697Z,0
2017-07-02T01:22:15.916Z,0
2017-07-02T01:23:25.521Z,0
2017-07-02T01:24:35.428Z,0
2017-07-02T01:25:45.334Z,0
2017-07-02T01:26:54.632Z,0
2017-07-02T01:28:04.544Z,0
2017-07-02T01:29:14.469Z,0
2017-07-02T01:30:24.366Z,0
2017-07-02T01:31:33.670Z,0
2017-07-02T01:32:43.593Z,0
2017-07-02T01:33:53.513Z,0
2017-07-02T01:35:03.738Z,0
2017-07-02T01:36:13.645Z,0
2017-07-02T01:37:23.864Z,0
2017-07-02T01:38:33.506Z,0
2017-07-02T01:39:43.713Z,0
2017-07-02T01:40:53.988Z,0
2017-07-02T01:42:03.891Z,0
2017-07-02T01:43:13.791Z,0
2017-07-02T01:44:23.700Z,0
2017-07-02T01:45:33.601Z,0
2017-07-02T01:46:43.508Z,0
2017-07-02T01:47:53.720Z,0
2017-07-02T01:49:03.623Z,0
2017-07-02T01:50:13.830Z,0
2017-07-02T01:51:23.432Z,0
2017-07-02T01:52:33.647Z,0
2017-07-02T01:53:43.548Z,0
2017-07-02T01:54:53.771Z,0
2017-07-02T01:56:03.694Z,0
2017-07-02T01:57:13.283Z,0
2017-07-02T01:58:23.188Z,0
2017-07-02T01:59:33.399Z,0
2017-07-02T02:00:43.613Z,0
2017-07-02T02:01:53.513Z,0
2017-07-02T02:03:03.727Z,0
2017-07-02T02:04:13.322Z,0
2017-07-02T02:05:23.226Z,0
2017-07-02T02:06:32.815Z,0
2017-07-02T02:07:42.415Z,0
2017-07-02T02:08:52.314Z,0
2017-07-02T02:10:02.229Z,0
2017-07-02T02:11:12.433Z,0
2017-07-02T02:12:21.724Z,0
2017-07-02T02:13:31.947Z,0
2017-07-02T02:14:42.225Z,0
2017-07-02T02:15:52.135Z,0
2017-07-02T02:17:02.336Z,0
2017-07-02T02:18:12.562Z,0
2017-07-02T02:19:21.860Z,0
2017-07-02T02:20:31.454Z,0
2017-07-02T02:21:41.664Z,0
2017-07-02T02:22:51.870Z,0
2017-07-02T02:24:01.774Z,0
2017-07-02T02:25:12.038Z,0
2017-07-02T02:26:22.266Z,0
2017-07-02T02:27:31.863Z,0
2017-07-02T02:28:42.083Z,0
2017-07-02T02:29:51.699Z,0
2017-07-02T02:31:01.009Z,0
2017-07-02T02:32:11.222Z,0
2017-07-02T02:33:21.129Z,0
2017-07-02T02:34:31.045Z,0
2017-07-02T02:35:41.251Z,0
2017-07-02T02:37:59.951Z,0
2017-07-02T02:39:09.854Z,0
2017-07-02T02:40:19.761Z,0
2017-07-02T02:41:29.359Z,0
2017-07-02T02:42:38.965Z,0
2017-07-02T02:43:48.916Z,0
2017-07-02T02:44:59.119Z,0
2017-07-02T02:46:08.725Z,0
2017-07-02T02:47:18.034Z,0
2017-07-02T02:48:27.342Z,0
2017-07-02T02:49:37.357Z,0
2017-07-02T02:50:47.569Z,0
2017-07-02T02:51:57.485Z,0
2017-07-02T02:53:07.697Z,0
2017-07-02T02:54:17.311Z,0
2017-07-02T02:55:27.561Z,0
2017-07-02T02:56:37.762Z,4
2017-07-02T02:57:47.974Z,4
2017-07-02T02:58:57.569Z,4
2017-07-02T03:00:07.180Z,4
2017-07-02T03:01:17.406Z,4
2017-07-02T03:02:27.324Z,4
2017-07-02T03:03:37.534Z,4
2017-07-02T03:04:47.741Z,0
2017-07-02T03:05:57.655Z,0
2017-07-02T03:07:08.044Z,4
2017-07-02T03:08:17.955Z,4
2017-07-02T03:09:27.552Z,4
2017-07-02T03:10:37.757Z,4
2017-07-02T03:11:47.660Z,4
2017-07-02T03:12:57.757Z,4
2017-07-02T03:14:07.970Z,4
2017-07-02T03:15:18.179Z,8
2017-07-02T03:16:28.399Z,8
2017-07-02T03:17:37.997Z,12
2017-07-02T03:18:48.220Z,12
2017-07-02T03:19:58.123Z,12
2017-07-02T03:21:08.699Z,16
2017-07-02T03:22:18.604Z,12
2017-07-02T03:23:28.492Z,12
2017-07-02T03:24:38.788Z,16
2017-07-02T03:25:49.392Z,12
2017-07-02T03:26:59.584Z,16
2017-07-02T03:28:09.490Z,20
2017-07-02T03:29:19.382Z,20
2017-07-02T03:30:29.427Z,20
2017-07-02T03:31:39.032Z,20
2017-07-02T03:32:49.243Z,20
2017-07-02T03:33:58.538Z,24
2017-07-02T03:35:08.443Z,24
2017-07-02T03:36:18.148Z,24
2017-07-02T03:37:28.358Z,28
2017-07-02T03:38:38.573Z,24
2017-07-02T03:39:48.788Z,28
2017-07-02T03:40:59.017Z,28
2017-07-02T03:42:09.266Z,28
2017-07-02T03:43:19.530Z,32
2017-07-02T03:44:28.836Z,36
2017-07-02T03:45:38.445Z,44
2017-07-02T03:46:48.043Z,52
2017-07-02T03:47:57.638Z,56
2017-07-02T03:49:07.882Z,56
2017-07-02T03:50:17.490Z,64
2017-07-02T03:51:27.401Z,68
2017-07-02T03:52:37.618Z,68
2017-07-02T03:53:47.935Z,72
2017-07-02T03:54:58.141Z,76
2017-07-02T03:56:08.066Z,76
2017-07-02T03:57:17.972Z,72
2017-07-02T03:58:27.872Z,80
2017-07-02T03:59:38.435Z,84
2017-07-02T04:00:48.343Z,88
2017-07-02T04:01:57.947Z,84
2017-07-02T04:03:07.868Z,80
2017-07-02T04:04:17.468Z,72
2017-07-02T04:05:26.852Z,68
2017-07-02T04:06:37.276Z,68
2017-07-02T04:07:47.193Z,68
2017-07-02T04:08:57.398Z,76
2017-07-02T04:10:06.995Z,72
2017-07-02T04:11:16.952Z,68
2017-07-02T04:12:26.544Z,64
2017-07-02T04:13:36.455Z,60
2017-07-02T04:14:46.069Z,64
2017-07-02T04:15:55.668Z,64
2017-07-02T04:17:05.412Z,64
2017-07-02T04:18:15.321Z,64
2017-07-02T04:19:25.525Z,64
2017-07-02T04:20:34.525Z,68
2017-07-02T04:21:44.733Z,68
2017-07-02T04:22:54.490Z,68
2017-07-02T04:24:03.788Z,64
2017-07-02T04:25:12.767Z,72
2017-07-02T04:26:22.982Z,76
2017-07-02T04:27:32.893Z,88
2017-07-02T04:28:42.666Z,84
2017-07-02T04:29:52.872Z,88
2017-07-02T04:31:02.784Z,92
2017-07-02T04:32:12.382Z,92
2017-07-02T04:33:22.613Z,92
2017-07-02T04:34:32.884Z,104
2017-07-02T04:35:43.103Z,116
2017-07-02T04:36:53.045Z,112
2017-07-02T04:38:03.252Z,128
2017-07-02T04:39:13.186Z,136
2017-07-02T04:40:23.446Z,132
2017-07-02T04:41:33.335Z,152
2017-07-02T04:42:43.538Z,188
2017-07-02T04:43:52.827Z,200
2017-07-02T04:45:02.753Z,200
2017-07-02T04:46:12.649Z,212
2017-07-02T04:47:22.861Z,192
2017-07-02T04:48:32.458Z,208
2017-07-02T04:49:42.666Z,216
2017-07-02T04:50:52.277Z,224
2017-07-02T04:52:02.670Z,240
2017-07-02T04:53:12.269Z,236
2017-07-02T04:54:22.482Z,260
2017-07-02T04:55:31.778Z,232
2017-07-02T04:56:41.372Z,240
2017-07-02T04:57:51.116Z,256
2017-07-02T04:59:01.323Z,308
2017-07-02T05:00:10.922Z,284
2017-07-02T05:01:20.831Z,268
2017-07-02T05:02:30.729Z,312
2017-07-02T05:03:40.939Z,328
2017-07-02T05:04:50.840Z,328
2017-07-02T05:06:00.749Z,280
2017-07-02T05:07:10.364Z,260
2017-07-02T05:08:20.266Z,228
2017-07-02T05:09:30.172Z,216
2017-07-02T05:10:40.079Z,236
2017-07-02T05:11:50.288Z,220
2017-07-02T05:12:59.908Z,240
2017-07-02T05:14:09.816Z,260
2017-07-02T05:15:19.737Z,248
2017-07-02T05:16:29.656Z,248
2017-07-02T05:17:39.873Z,240
2017-07-02T05:18:50.134Z,224
2017-07-02T05:20:00.032Z,212
2017-07-02T05:21:10.340Z,188
2017-07-02T05:22:20.541Z,192
2017-07-02T05:23:30.138Z,200
2017-07-02T05:24:39.734Z,228
2017-07-02T05:25:49.647Z,240
2017-07-02T05:26:59.707Z,244
2017-07-02T05:28:09.961Z,300
2017-07-02T05:29:19.569Z,328
2017-07-02T05:30:29.795Z,364
2017-07-02T05:31:40.000Z,376
2017-07-02T05:32:50.303Z,328
2017-07-02T05:33:59.964Z,304
2017-07-02T05:35:09.870Z,276
2017-07-02T05:36:19.777Z,276
2017-07-02T05:37:29.679Z,264
2017-07-02T05:38:39.575Z,256
2017-07-02T05:39:49.783Z,216
2017-07-02T05:40:59.989Z,204
2017-07-02T05:42:09.890Z,212
2017-07-02T05:43:19.806Z,232
2017-07-02T05:44:29.458Z,236
2017-07-02T05:45:39.677Z,220
2017-07-02T05:46:49.593Z,196
2017-07-02T05:47:59.500Z,208
2017-07-02T05:49:09.114Z,252
2017-07-02T05:50:19.473Z,288
2017-07-02T05:51:29.383Z,288
2017-07-02T05:52:39.303Z,280
2017-07-02T05:53:49.509Z,308
2017-07-02T05:54:58.510Z,308
2017-07-02T05:56:08.718Z,292
2017-07-02T05:57:18.333Z,280
2017-07-02T05:58:28.241Z,272
2017-07-02T05:59:38.459Z,268
2017-07-02T06:00:48.365Z,284
2017-07-02T06:01:58.273Z,292
2017-07-02T06:03:07.878Z,276
2017-07-02T06:04:17.486Z,260
2017-07-02T06:05:27.277Z,272
2017-07-02T06:06:38.084Z,296
2017-07-02T06:07:48.108Z,304
2017-07-02T06:08:58.740Z,312
2017-07-02T06:10:09.059Z,340
2017-07-02T06:11:18.770Z,364
2017-07-02T06:12:28.562Z,332
2017-07-02T06:13:39.073Z,336
2017-07-02T06:14:49.055Z,336
2017-07-02T06:16:00.052Z,360
2017-07-02T06:17:09.674Z,360
2017-07-02T06:18:19.607Z,368
2017-07-02T06:19:29.924Z,368
2017-07-02T06:20:40.150Z,372
2017-07-02T06:21:50.084Z,352
2017-07-02T06:23:00.060Z,368
2017-07-02T06:24:09.964Z,380
2017-07-02T06:25:20.030Z,388
2017-07-02T06:26:29.948Z,432
2017-07-02T06:27:40.163Z,444
2017-07-02T06:28:50.082Z,528
2017-07-02T06:29:59.993Z,552
2017-07-02T06:31:09.604Z,532
2017-07-02T06:32:19.505Z,536
2017-07-02T06:33:29.120Z,544
2017-07-02T06:34:39.340Z,528
2017-07-02T06:35:48.930Z,460
2017-07-02T06:36:58.891Z,416
2017-07-02T06:38:08.189Z,384
2017-07-02T06:39:18.584Z,424
2017-07-02T06:40:28.511Z,416
2017-07-02T06:41:38.423Z,436
2017-07-02T06:42:48.314Z,428
2017-07-02T06:43:58.220Z,456
2017-07-02T06:45:08.123Z,468
2017-07-02T06:46:18.018Z,468
2017-07-02T06:47:27.306Z,496
2017-07-02T06:48:37.262Z,608
2017-07-02T06:49:47.467Z,784
2017-07-02T06:50:57.685Z,848
2017-07-02T06:52:07.900Z,904
2017-07-02T06:53:17.803Z,1048
2017-07-02T06:54:28.011Z,916
2017-07-02T06:55:37.617Z,1060
2017-07-02T06:56:47.250Z,1024
2017-07-02T06:57:58.578Z,1104
2017-07-02T06:59:09.212Z,1180
2017-07-02T07:00:18.518Z,1456
2017-07-02T07:01:28.730Z,1612
2017-07-02T07:02:38.951Z,1300
2017-07-02T07:03:48.848Z,1016
2017-07-02T07:04:59.058Z,868
2017-07-02T07:06:09.059Z,920
2017-07-02T07:07:18.959Z,960
2017-07-02T07:08:28.541Z,892
2017-07-02T07:09:38.749Z,800
2017-07-02T07:10:48.964Z,704
2017-07-02T07:11:58.714Z,724
2017-07-02T07:13:08.312Z,700
2017-07-02T07:14:18.229Z,652
2017-07-02T07:15:27.535Z,604
2017-07-02T07:16:37.451Z,700
2017-07-02T07:17:47.375Z,640
2017-07-02T07:18:56.986Z,716
2017-07-02T07:20:06.907Z,880
2017-07-02T07:21:16.279Z,1056
2017-07-02T07:22:26.522Z,1416
2017-07-02T07:23:36.716Z,1856
2017-07-02T07:24:47.355Z,2152
2017-07-02T07:25:56.985Z,1660
2017-07-02T07:27:06.917Z,1388
2017-07-02T07:28:17.362Z,1428
2017-07-02T07:29:28.241Z,1352
2017-07-02T07:30:38.264Z,1568
2017-07-02T07:31:49.291Z,2296
2017-07-02T07:32:59.515Z,3292
2017-07-02T07:34:09.156Z,1680
2017-07-02T07:35:19.368Z,1560
2017-07-02T07:36:29.267Z,1384
2017-07-02T07:37:39.482Z,1100
2017-07-02T07:38:49.110Z,1216
2017-07-02T07:39:59.376Z,1248
2017-07-02T07:41:09.276Z,1164
2017-07-02T07:42:19.194Z,1004
2017-07-02T07:43:29.107Z,952
2017-07-02T07:44:39.077Z,988
2017-07-02T07:45:49.033Z,1252
2017-07-02T07:46:59.348Z,1156
2017-07-02T07:48:09.593Z,1184
2017-07-02T07:49:18.892Z,1268
2017-07-02T07:50:29.108Z,1376
2017-07-02T07:51:38.100Z,1340
2017-07-02T07:52:47.866Z,1340
2017-07-02T07:53:58.080Z,1272
2017-07-02T07:55:07.686Z,1412
2017-07-02T07:56:17.605Z,1544
2017-07-02T07:57:27.821Z,1404
2017-07-02T07:58:37.942Z,1312
2017-07-02T07:59:47.846Z,1584
2017-07-02T08:00:57.468Z,1760
2017-07-02T08:02:07.681Z,2096
2017-07-02T08:03:17.894Z,3576
2017-07-02T08:04:28.112Z,2292
2017-07-02T08:05:38.322Z,1856
2017-07-02T08:06:48.540Z,1796
2017-07-02T08:07:58.141Z,1824
2017-07-02T08:09:08.353Z,1724
2017-07-02T08:10:18.417Z,1648
2017-07-02T08:11:28.624Z,1816
2017-07-02T08:12:38.225Z,2388
2017-07-02T08:13:48.424Z,4324
2017-07-02T08:14:58.334Z,4188
2017-07-02T08:16:08.599Z,3628
2017-07-02T08:17:18.199Z,21632
2017-07-02T08:18:27.788Z,20096
2017-07-02T08:19:37.695Z,18560
2017-07-02T08:20:47.335Z,3732
2017-07-02T08:21:56.983Z,1272
2017-07-02T08:23:06.623Z,660
2017-07-02T08:24:16.553Z,464
2017-07-02T08:25:26.163Z,340
2017-07-02T08:26:36.098Z,256
2017-07-02T08:27:46.362Z,288
2017-07-02T08:28:56.276Z,356
2017-07-02T08:30:06.177Z,380
2017-07-02T08:31:16.527Z,340
2017-07-02T08:32:26.840Z,524
2017-07-02T08:33:37.354Z,880
2017-07-02T08:34:47.893Z,768
2017-07-02T08:35:57.498Z,988
2017-07-02T08:37:07.706Z,1200
2017-07-02T08:38:18.380Z,1044
2017-07-02T08:39:28.393Z,1560
2017-07-02T08:40:38.761Z,1428
2017-07-02T08:41:48.659Z,1448
2017-07-02T08:42:58.673Z,1436
2017-07-02T08:44:08.602Z,1140
2017-07-02T08:45:18.966Z,1376
2017-07-02T08:46:28.869Z,1352
2017-07-02T08:47:38.787Z,1572
2017-07-02T08:48:49.007Z,1576
2017-07-02T08:49:58.657Z,1460
2017-07-02T08:51:08.929Z,1376
2017-07-02T08:52:18.840Z,1368
2017-07-02T08:53:29.099Z,1384
2017-07-02T08:54:38.725Z,1392
2017-07-02T08:55:48.633Z,1388
2017-07-02T08:57:00.933Z,1612
2017-07-02T08:58:13.134Z,2668
2017-07-02T08:59:25.758Z,2312
2017-07-02T09:00:37.112Z,2896
2017-07-02T09:01:48.222Z,2260
2017-07-02T09:03:00.268Z,2020
2017-07-02T09:04:12.679Z,1680
2017-07-02T09:05:22.876Z,1584
2017-07-02T09:06:34.776Z,1548
2017-07-02T09:07:46.020Z,1496
2017-07-02T09:08:58.025Z,1348
2017-07-02T09:10:08.971Z,1112
2017-07-02T09:11:18.879Z,788
2017-07-02T09:12:29.118Z,512
2017-07-02T09:13:39.491Z,660
2017-07-02T09:14:49.109Z,1100
2017-07-02T09:15:59.326Z,1284
2017-07-02T09:17:09.244Z,1340
2017-07-02T09:18:18.836Z,1136
2017-07-02T09:19:29.048Z,1392
2017-07-02T09:20:38.662Z,1352
2017-07-02T09:21:48.297Z,1352
2017-07-02T09:22:57.917Z,1428
2017-07-02T09:24:07.837Z,1496
2017-07-02T09:25:17.429Z,1560
2017-07-02T09:26:27.325Z,1764
2017-07-02T09:27:37.549Z,2092
2017-07-02T09:28:47.176Z,2284
2017-07-02T09:29:56.519Z,1996
2017-07-02T09:31:06.559Z,2188
2017-07-02T09:32:16.484Z,2356
2017-07-02T09:33:26.718Z,2724
2017-07-02T09:34:36.646Z,2964
2017-07-02T09:35:46.261Z,2908
2017-07-02T09:36:56.319Z,2648
2017-07-02T09:38:06.554Z,2412
2017-07-02T09:39:15.913Z,2516
2017-07-02T09:40:25.216Z,2160
2017-07-02T09:41:35.133Z,2100
2017-07-02T09:42:45.167Z,2080
2017-07-02T09:43:55.098Z,1776
2017-07-02T09:45:05.009Z,1528
2017-07-02T09:46:14.932Z,1440
2017-07-02T09:47:25.142Z,1248
2017-07-02T09:48:35.098Z,1268
2017-07-02T09:49:44.698Z,1396
2017-07-02T09:50:54.294Z,1476
2017-07-02T09:52:03.891Z,1500
2017-07-02T09:53:13.479Z,1336
2017-07-02T09:54:23.585Z,1340
2017-07-02T09:55:33.512Z,1264
2017-07-02T09:56:43.449Z,1316
2017-07-02T09:57:53.073Z,1448
2017-07-02T09:59:02.689Z,1472
2017-07-02T10:00:12.597Z,1808
2017-07-02T10:01:22.814Z,2156
2017-07-02T10:02:33.014Z,2184
2017-07-02T10:03:42.938Z,2036
2017-07-02T10:04:52.561Z,1960
2017-07-02T10:06:02.616Z,2008
2017-07-02T10:07:12.223Z,1916
2017-07-02T10:08:22.122Z,1644
2017-07-02T10:09:32.049Z,1384
2017-07-02T10:10:41.957Z,1152
2017-07-02T10:11:51.860Z,1264
2017-07-02T10:13:01.779Z,1388
2017-07-02T10:14:11.765Z,1408
2017-07-02T10:15:21.390Z,1452
2017-07-02T10:16:30.766Z,1328
2017-07-02T10:17:40.796Z,1120
2017-07-02T10:18:50.999Z,1088
2017-07-02T10:20:00.291Z,1256
2017-07-02T10:21:10.223Z,1484
2017-07-02T10:22:20.456Z,1704
2017-07-02T10:23:30.711Z,1888
2017-07-02T10:24:40.318Z,2004
2017-07-02T10:25:49.932Z,2004
2017-07-02T10:27:00.196Z,2016
2017-07-02T10:28:09.797Z,2040
2017-07-02T10:29:20.026Z,2044
2017-07-02T10:30:30.246Z,1992
2017-07-02T10:31:40.158Z,2000
2017-07-02T10:32:49.753Z,2048
2017-07-02T10:33:59.682Z,2036
2017-07-02T10:35:09.949Z,2056
2017-07-02T10:36:18.953Z,2100
2017-07-02T10:37:29.199Z,2068
2017-07-02T10:38:39.406Z,2144
2017-07-02T10:39:49.039Z,2040
2017-07-02T10:40:59.246Z,1568
2017-07-02T10:42:09.469Z,1628
2017-07-02T10:43:19.083Z,1704
2017-07-02T10:44:28.978Z,2008
2017-07-02T10:45:38.582Z,2100
2017-07-02T10:46:48.293Z,1988
2017-07-02T10:47:58.206Z,1908
2017-07-02T10:49:07.510Z,1892
2017-07-02T10:50:17.408Z,1880
2017-07-02T10:51:27.323Z,1844
2017-07-02T10:52:37.230Z,1820
2017-07-02T10:53:47.515Z,1732
2017-07-02T10:54:57.717Z,1560
2017-07-02T10:56:07.938Z,1456
2017-07-02T10:57:17.267Z,1420
2017-07-02T10:58:27.155Z,1404
2017-07-02T10:59:37.069Z,1392
2017-07-02T11:00:46.361Z,1384
2017-07-02T11:01:56.582Z,1212
2017-07-02T11:03:06.798Z,960
2017-07-02T11:04:16.554Z,1168
2017-07-02T11:05:26.467Z,1176
2017-07-02T11:06:36.365Z,972
2017-07-02T11:07:45.706Z,1200
2017-07-02T11:08:55.974Z,1292
2017-07-02T11:10:06.202Z,1060
2017-07-02T11:11:16.115Z,1052
2017-07-02T11:12:25.721Z,840
2017-07-02T11:13:35.934Z,1056
2017-07-02T11:14:45.855Z,1076
2017-07-02T11:15:56.235Z,1428
2017-07-02T11:17:06.184Z,1624
2017-07-02T11:18:15.477Z,1760
2017-07-02T11:19:25.382Z,1748
2017-07-02T11:20:35.597Z,1620
2017-07-02T11:21:45.796Z,1484
2017-07-02T11:22:55.699Z,1472
2017-07-02T11:24:05.617Z,1596
2017-07-02T11:25:15.230Z,1608
2017-07-02T11:26:25.145Z,1676
2017-07-02T11:27:34.905Z,1684
2017-07-02T11:28:44.818Z,1588
2017-07-02T11:29:54.417Z,1432
2017-07-02T11:31:04.326Z,1232
2017-07-02T11:32:14.228Z,912
2017-07-02T11:33:24.438Z,584
2017-07-02T11:34:34.337Z,500
2017-07-02T11:35:43.628Z,556
2017-07-02T11:36:53.852Z,464
2017-07-02T11:38:03.756Z,388
2017-07-02T11:39:13.525Z,420
2017-07-02T11:40:23.464Z,372
2017-07-02T11:41:33.381Z,476
2017-07-02T11:42:42.978Z,376
2017-07-02T11:43:52.294Z,456
2017-07-02T11:45:02.254Z,568
2017-07-02T11:46:12.471Z,588
2017-07-02T11:47:22.090Z,608
2017-07-02T11:48:32.002Z,640
2017-07-02T11:49:42.230Z,644
2017-07-02T11:50:52.299Z,744
2017-07-02T11:52:02.205Z,896
2017-07-02T11:53:12.417Z,1048
2017-07-02T11:54:22.035Z,1204
2017-07-02T11:55:31.632Z,1344
2017-07-02T11:56:41.319Z,1300
2017-07-02T11:57:51.538Z,1496
2017-07-02T11:59:01.452Z,1272
2017-07-02T12:00:11.366Z,984
2017-07-02T12:01:20.367Z,976
2017-07-02T12:02:30.332Z,984
2017-07-02T12:03:39.939Z,812
2017-07-02T12:04:49.835Z,576
2017-07-02T12:06:00.043Z,484
2017-07-02T12:07:09.946Z,368
2017-07-02T12:08:20.235Z,376
2017-07-02T12:09:30.166Z,380
2017-07-02T12:10:40.388Z,468
2017-07-02T12:11:49.999Z,508
2017-07-02T12:13:00.211Z,528
2017-07-02T12:14:09.959Z,492
2017-07-02T12:15:19.575Z,484
2017-07-02T12:16:29.816Z,444
2017-07-02T12:17:39.418Z,400
2017-07-02T12:18:48.720Z,356
2017-07-02T12:19:58.012Z,412
2017-07-02T12:21:07.931Z,484
2017-07-02T12:22:17.848Z,436
2017-07-02T12:23:28.079Z,324
2017-07-02T12:24:38.301Z,372
2017-07-02T12:25:48.356Z,332
2017-07-02T12:26:58.260Z,380
2017-07-02T12:28:07.868Z,348
2017-07-02T12:29:17.462Z,392
2017-07-02T12:30:27.077Z,508
2017-07-02T12:31:36.984Z,480
2017-07-02T12:32:46.275Z,516
2017-07-02T12:33:55.875Z,504
2017-07-02T12:35:05.165Z,432
2017-07-02T12:36:14.454Z,560
2017-07-02T12:37:25.020Z,672
2017-07-02T12:38:34.928Z,716
2017-07-02T12:39:44.521Z,852
2017-07-02T12:40:53.831Z,940
2017-07-02T12:42:03.438Z,992
2017-07-02T12:43:13.457Z,924
2017-07-02T12:44:23.378Z,712
2017-07-02T12:45:32.992Z,756
2017-07-02T12:46:42.906Z,1036
2017-07-02T12:47:52.534Z,936
2017-07-02T12:49:02.565Z,824
2017-07-02T12:50:12.479Z,712
2017-07-02T12:51:22.703Z,692
2017-07-02T12:52:32.629Z,648
2017-07-02T12:53:42.545Z,612
2017-07-02T12:54:52.471Z,560
2017-07-02T12:56:02.918Z,524
2017-07-02T12:57:12.867Z,484
2017-07-02T12:58:23.142Z,440
2017-07-02T12:59:33.380Z,328
2017-07-02T13:00:43.100Z,364
2017-07-02T13:01:53.022Z,416
2017-07-02T13:03:03.238Z,412
2017-07-02T13:04:12.844Z,412
2017-07-02T13:05:23.076Z,380
2017-07-02T13:06:33.001Z,468
2017-07-02T13:07:43.215Z,564
2017-07-02T13:08:53.135Z,608
2017-07-02T13:10:03.057Z,580
2017-07-02T13:11:13.279Z,552
2017-07-02T13:12:23.343Z,528
2017-07-02T13:13:33.252Z,480
2017-07-02T13:14:43.464Z,636
2017-07-02T13:15:53.063Z,724
2017-07-02T13:17:02.978Z,672
2017-07-02T13:18:13.299Z,588
2017-07-02T13:19:23.514Z,556
2017-07-02T13:20:33.739Z,528
2017-07-02T13:21:43.656Z,472
2017-07-02T13:22:53.559Z,480
2017-07-02T13:24:03.322Z,488
2017-07-02T13:25:13.245Z,448
2017-07-02T13:26:23.186Z,368
2017-07-02T13:27:32.785Z,436
2017-07-02T13:28:42.393Z,416
2017-07-02T13:29:51.992Z,420
2017-07-02T13:31:01.913Z,408
2017-07-02T13:32:11.826Z,448
2017-07-02T13:33:21.731Z,448
2017-07-02T13:34:31.959Z,316
2017-07-02T13:35:42.010Z,312
2017-07-02T13:36:51.924Z,316
2017-07-02T13:38:01.536Z,264
2017-07-02T13:39:11.162Z,252
2017-07-02T13:40:20.471Z,208
2017-07-02T13:41:29.935Z,252
2017-07-02T13:42:39.849Z,260
2017-07-02T13:43:49.777Z,260
2017-07-02T13:45:00.056Z,220
2017-07-02T13:46:10.282Z,248
2017-07-02T13:47:20.594Z,332
2017-07-02T13:48:29.893Z,388
2017-07-02T13:49:39.178Z,392
2017-07-02T13:50:49.149Z,332
2017-07-02T13:51:59.055Z,328
2017-07-02T13:53:09.327Z,368
2017-07-02T13:54:19.554Z,252
2017-07-02T13:55:29.485Z,236
2017-07-02T13:56:39.698Z,328
2017-07-02T13:57:49.615Z,376
2017-07-02T13:58:59.676Z,496
2017-07-02T14:00:09.897Z,544
2017-07-02T14:01:19.895Z,636
2017-07-02T14:02:29.799Z,584
2017-07-02T14:03:40.048Z,472
2017-07-02T14:04:49.650Z,484
2017-07-02T14:05:59.252Z,504
2017-07-02T14:07:09.171Z,536
2017-07-02T14:08:18.781Z,620
2017-07-02T14:09:29.005Z,708
2017-07-02T14:10:39.011Z,668
2017-07-02T14:11:48.930Z,620
2017-07-02T14:12:58.840Z,536
2017-07-02T14:14:08.764Z,404
2017-07-02T14:15:18.669Z,412
2017-07-02T14:16:28.563Z,400
2017-07-02T14:17:38.465Z,292
2017-07-02T14:18:48.673Z,212
2017-07-02T14:19:58.277Z,332
2017-07-02T14:21:08.488Z,412
2017-07-02T14:22:18.807Z,508
2017-07-02T14:23:28.707Z,636
2017-07-02T14:24:38.622Z,716
2017-07-02T14:25:48.839Z,844
2017-07-02T14:26:59.050Z,928
2017-07-02T14:28:09.417Z,1028
2017-07-02T14:29:19.616Z,1148
2017-07-02T14:30:29.830Z,1192
2017-07-02T14:31:39.730Z,1252
2017-07-02T14:32:49.943Z,1384
2017-07-02T14:34:00.014Z,1232
2017-07-02T14:35:10.236Z,1264
2017-07-02T14:36:19.853Z,1232
2017-07-02T14:37:30.076Z,1284
2017-07-02T14:38:40.038Z,1116
2017-07-02T14:39:50.294Z,996
2017-07-02T14:40:59.897Z,936
2017-07-02T14:42:09.800Z,936
2017-07-02T14:43:19.704Z,788
2017-07-02T14:44:29.604Z,736
2017-07-02T14:45:38.895Z,756
2017-07-02T14:46:49.101Z,804
2017-07-02T14:47:59.012Z,904
2017-07-02T14:49:09.270Z,956
2017-07-02T14:50:19.187Z,1008
2017-07-02T14:51:29.261Z,1064
2017-07-02T14:52:39.509Z,1148
2017-07-02T14:53:49.102Z,1348
2017-07-02T14:54:59.016Z,1364
2017-07-02T14:56:09.241Z,1296
2017-07-02T14:57:19.537Z,1072
2017-07-02T14:58:28.823Z,988
2017-07-02T14:59:38.777Z,1036
2017-07-02T15:00:48.689Z,976
2017-07-02T15:01:58.301Z,852
2017-07-02T15:03:08.667Z,712
2017-07-02T15:04:18.592Z,616
2017-07-02T15:05:28.817Z,560
2017-07-02T15:06:38.116Z,564
2017-07-02T15:07:48.035Z,560
2017-07-02T15:08:57.941Z,528
2017-07-02T15:10:07.892Z,472
2017-07-02T15:11:17.791Z,440
2017-07-02T15:12:27.696Z,564
2017-07-02T15:13:37.289Z,560
2017-07-02T15:14:47.662Z,620
2017-07-02T15:15:57.265Z,784
2017-07-02T15:17:07.473Z,980
2017-07-02T15:18:16.756Z,1084
2017-07-02T15:19:26.351Z,1100
2017-07-02T15:20:36.324Z,732
2017-07-02T15:21:46.220Z,576
2017-07-02T15:22:56.429Z,576
2017-07-02T15:24:05.718Z,568
2017-07-02T15:25:15.932Z,508
2017-07-02T15:26:26.152Z,504
2017-07-02T15:27:36.361Z,544
2017-07-02T15:28:46.562Z,588
2017-07-02T15:29:56.168Z,608
2017-07-02T15:31:06.074Z,540
2017-07-02T15:32:15.995Z,516
2017-07-02T15:33:26.226Z,568
2017-07-02T15:34:36.154Z,696
2017-07-02T15:35:46.379Z,812
2017-07-02T15:36:56.690Z,832
2017-07-02T15:38:06.590Z,912
2017-07-02T15:39:16.821Z,852
2017-07-02T15:40:26.425Z,1000
2017-07-02T15:41:36.630Z,1024
2017-07-02T15:42:46.985Z,828
2017-07-02T15:43:57.210Z,748
2017-07-02T15:45:07.107Z,592
2017-07-02T15:46:17.310Z,628
2017-07-02T15:47:27.529Z,576
2017-07-02T15:48:37.731Z,588
2017-07-02T15:49:47.948Z,692
2017-07-02T15:50:57.540Z,708
2017-07-02T15:52:07.443Z,800
2017-07-02T15:53:17.365Z,796
2017-07-02T15:54:27.275Z,700
2017-07-02T15:55:37.176Z,752
2017-07-02T15:56:47.085Z,392
2017-07-02T15:57:56.994Z,408
2017-07-02T15:59:06.741Z,876
2017-07-02T16:00:16.640Z,1024
2017-07-02T16:01:26.556Z,1052
2017-07-02T16:02:36.460Z,1096
2017-07-02T16:03:45.791Z,912
2017-07-02T16:04:55.230Z,880
2017-07-02T16:06:05.456Z,724
2017-07-02T16:07:15.673Z,748
2017-07-02T16:08:25.911Z,636
2017-07-02T16:09:35.880Z,640
2017-07-02T16:10:46.190Z,616